createdAt,value
2023-06-28T00:00:30.697Z,19.80
2023-06-28T00:02:58.123Z,19.70
2023-06-28T00:05:26.598Z,19.50
2023-06-28T00:07:54.044Z,19.40
2023-06-28T00:10:21.344Z,19.30
2023-06-28T00:12:48.704Z,19.20
2023-06-28T00:15:16.093Z,19.10
2023-06-28T00:17:43.538Z,19.10
2023-06-28T00:20:12.035Z,19.00
2023-06-28T00:22:41.360Z,19.00
2023-06-28T00:25:09.739Z,18.90
2023-06-28T00:27:37.151Z,18.80
2023-06-28T00:30:05.095Z,18.80
2023-06-28T00:32:32.505Z,18.70
2023-06-28T00:34:59.863Z,18.60
2023-06-28T00:37:27.348Z,18.60
2023-06-28T00:39:56.154Z,18.50
2023-06-28T00:42:23.631Z,18.50
2023-06-28T00:44:51.210Z,18.50
2023-06-28T00:47:20.073Z,18.50
2023-06-28T00:49:48.309Z,18.50
2023-06-28T00:52:15.792Z,18.40
2023-06-28T00:54:43.519Z,18.40
2023-06-28T00:57:10.953Z,18.50
2023-06-28T00:59:38.851Z,18.50
2023-06-28T01:02:06.354Z,18.50
2023-06-28T01:04:35.394Z,18.50
2023-06-28T01:07:04.699Z,18.50
2023-06-28T01:09:33.179Z,18.50
2023-06-28T01:12:02.065Z,18.50
2023-06-28T01:14:30.413Z,18.50
2023-06-28T01:16:58.376Z,18.50
2023-06-28T01:19:27.843Z,18.50
2023-06-28T01:22:07.130Z,18.50
2023-06-28T01:24:34.647Z,18.50
2023-06-28T01:27:02.489Z,18.50
2023-06-28T01:29:30.443Z,18.50
2023-06-28T01:31:58.860Z,18.40
2023-06-28T01:34:28.052Z,18.40
2023-06-28T01:36:58.765Z,18.40
2023-06-28T01:39:27.115Z,18.30
2023-06-28T01:41:55.221Z,18.30
2023-06-28T01:44:24.160Z,18.30
2023-06-28T01:46:53.443Z,18.30
2023-06-28T01:49:20.903Z,18.30
2023-06-28T01:51:48.494Z,18.30
2023-06-28T01:54:16.818Z,18.30
2023-06-28T01:56:44.606Z,18.30
2023-06-28T01:59:12.005Z,18.30
2023-06-28T02:01:39.487Z,18.30
2023-06-28T02:04:06.977Z,18.30
2023-06-28T02:06:34.411Z,18.20
2023-06-28T02:09:01.838Z,18.20
2023-06-28T02:11:30.006Z,18.30
2023-06-28T02:13:57.421Z,18.30
2023-06-28T02:16:24.774Z,18.30
2023-06-28T02:18:52.601Z,18.30
2023-06-28T02:21:19.992Z,18.30
2023-06-28T02:23:47.330Z,18.30
2023-06-28T02:26:14.744Z,18.30
2023-06-28T02:28:42.026Z,18.30
2023-06-28T02:31:09.417Z,18.30
2023-06-28T02:33:36.886Z,18.30
2023-06-28T02:36:04.385Z,18.40
2023-06-28T02:38:31.673Z,18.40
2023-06-28T02:40:58.960Z,18.40
2023-06-28T02:43:26.263Z,18.40
2023-06-28T02:45:53.639Z,18.40
2023-06-28T02:48:20.938Z,18.40
2023-06-28T02:50:48.236Z,18.40
2023-06-28T02:53:15.695Z,18.40
2023-06-28T02:55:42.951Z,18.40
2023-06-28T02:58:10.418Z,18.40
2023-06-28T03:00:40.085Z,18.40
2023-06-28T03:03:11.345Z,18.40
2023-06-28T03:05:39.532Z,18.40
2023-06-28T03:08:07.261Z,18.40
2023-06-28T03:10:34.637Z,18.40
2023-06-28T03:13:01.989Z,18.40
2023-06-28T03:15:29.295Z,18.40
2023-06-28T03:17:56.672Z,18.40
2023-06-28T03:20:24.282Z,18.30
2023-06-28T03:22:51.650Z,18.30
2023-06-28T03:25:19.254Z,18.30
2023-06-28T03:27:46.627Z,18.30
2023-06-28T03:30:14.059Z,18.20
2023-06-28T03:32:41.400Z,18.20
2023-06-28T03:35:09.606Z,18.10
2023-06-28T03:37:37.000Z,18.10
2023-06-28T03:40:06.083Z,18.10
2023-06-28T03:42:33.449Z,18.10
2023-06-28T03:45:00.929Z,18.10
2023-06-28T03:47:28.230Z,18.10
2023-06-28T03:49:55.586Z,18.10
2023-06-28T03:52:22.844Z,18.10
2023-06-28T03:54:50.210Z,18.00
2023-06-28T03:57:18.047Z,18.00
2023-06-28T03:59:45.451Z,18.00
2023-06-28T04:02:12.990Z,18.00
2023-06-28T04:04:40.287Z,18.00
2023-06-28T04:07:08.044Z,18.00
2023-06-28T04:09:35.481Z,18.00
2023-06-28T04:12:02.846Z,18.00
2023-06-28T04:14:30.151Z,18.00
2023-06-28T04:16:57.593Z,18.00
2023-06-28T04:19:24.908Z,18.00
2023-06-28T04:21:52.622Z,18.00
2023-06-28T04:24:19.949Z,18.00
2023-06-28T04:26:47.251Z,18.00
2023-06-28T04:29:15.862Z,18.00
2023-06-28T04:31:43.246Z,18.00
2023-06-28T04:34:10.539Z,18.00
2023-06-28T04:36:41.311Z,18.00
2023-06-28T04:39:08.610Z,18.00
2023-06-28T04:41:35.934Z,18.00
2023-06-28T04:44:04.770Z,18.00
2023-06-28T04:46:34.110Z,18.00
2023-06-28T04:49:01.937Z,18.00
2023-06-28T04:51:30.929Z,18.00
2023-06-28T04:54:00.302Z,18.00
2023-06-28T04:56:27.665Z,18.00
2023-06-28T04:58:55.173Z,18.00
2023-06-28T05:01:23.293Z,18.00
2023-06-28T05:03:50.695Z,18.00
2023-06-28T05:06:18.258Z,18.00
2023-06-28T05:08:46.385Z,18.10
2023-06-28T05:11:13.722Z,18.10
2023-06-28T05:13:41.713Z,18.10
2023-06-28T05:16:09.144Z,18.10
2023-06-28T05:18:36.467Z,18.10
2023-06-28T05:21:03.911Z,18.10
2023-06-28T05:23:31.540Z,18.10
2023-06-28T05:25:58.790Z,18.20
2023-06-28T05:28:27.559Z,18.20
2023-06-28T05:30:55.077Z,18.30
2023-06-28T05:33:22.640Z,18.30
2023-06-28T05:35:50.757Z,18.40
2023-06-28T05:38:18.402Z,18.40
2023-06-28T05:40:45.842Z,18.50
2023-06-28T05:43:13.275Z,18.60
2023-06-28T05:45:40.608Z,18.70
2023-06-28T05:48:08.774Z,18.80
2023-06-28T05:50:38.645Z,18.90
2023-06-28T05:53:07.658Z,19.00
2023-06-28T05:55:34.960Z,19.10
2023-06-28T05:58:02.212Z,19.20
2023-06-28T06:00:29.660Z,19.30
2023-06-28T06:02:57.068Z,19.30
2023-06-28T06:05:24.552Z,19.40
2023-06-28T06:07:51.915Z,19.50
2023-06-28T06:10:19.468Z,19.50
2023-06-28T06:12:48.592Z,19.50
2023-06-28T06:15:16.032Z,19.60
2023-06-28T06:17:43.543Z,19.70
2023-06-28T06:20:11.447Z,19.80
2023-06-28T06:22:38.991Z,19.90
2023-06-28T06:25:06.556Z,20.10
2023-06-28T06:27:33.853Z,20.20
2023-06-28T06:30:01.380Z,20.30
2023-06-28T06:32:28.700Z,20.40
2023-06-28T06:34:59.487Z,20.50
2023-06-28T06:37:26.826Z,20.60
2023-06-28T06:39:57.031Z,20.70
2023-06-28T06:42:24.375Z,20.80
2023-06-28T06:44:51.720Z,20.90
2023-06-28T06:47:19.074Z,21.00
2023-06-28T06:49:46.327Z,21.00
2023-06-28T06:52:13.700Z,21.00
2023-06-28T06:54:41.018Z,21.10
2023-06-28T06:57:08.815Z,21.20
2023-06-28T06:59:36.155Z,21.30
2023-06-28T07:02:04.353Z,21.40
2023-06-28T07:04:33.358Z,21.60
2023-06-28T07:07:00.910Z,21.80
2023-06-28T07:09:29.970Z,22.00
2023-06-28T07:11:57.395Z,22.30
2023-06-28T07:14:24.722Z,22.50
2023-06-28T07:16:52.122Z,22.60
2023-06-28T07:19:19.394Z,22.80
2023-06-28T07:21:46.679Z,22.90
2023-06-28T07:24:14.730Z,22.90
2023-06-28T07:26:42.189Z,22.90
2023-06-28T07:29:09.560Z,22.90
2023-06-28T07:31:36.944Z,22.90
2023-06-28T07:34:06.234Z,22.90
2023-06-28T07:36:34.142Z,22.80
2023-06-28T07:39:02.230Z,22.80
2023-06-28T07:41:29.543Z,22.70
2023-06-28T07:43:56.999Z,22.70
2023-06-28T07:46:24.486Z,22.70
2023-06-28T07:48:54.820Z,22.80
2023-06-28T07:51:22.170Z,22.90
2023-06-28T07:53:49.497Z,23.10
2023-06-28T07:56:16.905Z,23.20
2023-06-28T07:58:44.150Z,23.30
2023-06-28T08:01:11.687Z,23.40
2023-06-28T08:03:39.323Z,23.40
2023-06-28T08:06:06.647Z,23.40
2023-06-28T08:08:34.067Z,23.30
2023-06-28T08:11:01.660Z,23.30
2023-06-28T08:13:29.023Z,23.30
2023-06-28T08:15:56.259Z,23.40
2023-06-28T08:18:23.618Z,23.50
2023-06-28T08:20:51.064Z,23.70
2023-06-28T08:23:18.430Z,23.80
2023-06-28T08:25:46.024Z,23.90
2023-06-28T08:28:13.411Z,23.90
2023-06-28T08:30:40.822Z,24.00
2023-06-28T08:33:08.314Z,24.20
2023-06-28T08:35:35.714Z,24.30
2023-06-28T08:38:04.643Z,24.40
2023-06-28T08:40:32.001Z,24.50
2023-06-28T08:43:03.417Z,24.70
2023-06-28T08:45:36.746Z,24.90
2023-06-28T08:48:16.391Z,25.00
2023-06-28T08:50:52.739Z,25.20
2023-06-28T08:53:25.077Z,25.30
2023-06-28T08:55:53.631Z,25.30
2023-06-28T08:58:22.007Z,25.30
2023-06-28T09:00:49.282Z,25.20
2023-06-28T09:03:17.862Z,25.20
2023-06-28T09:05:46.360Z,25.10
2023-06-28T09:08:15.181Z,25.10
2023-06-28T09:10:43.155Z,25.10
2023-06-28T09:13:11.879Z,25.20
2023-06-28T09:15:39.267Z,25.30
2023-06-28T09:18:06.805Z,25.40
2023-06-28T09:20:37.246Z,25.60
2023-06-28T09:23:05.969Z,25.70
2023-06-28T09:25:35.041Z,25.90
2023-06-28T09:28:02.485Z,26.00
2023-06-28T09:30:29.784Z,26.10
2023-06-28T09:32:57.628Z,26.20
2023-06-28T09:35:25.133Z,26.30
2023-06-28T09:37:59.365Z,26.40
2023-06-28T09:40:27.688Z,26.40
2023-06-28T09:42:55.022Z,26.40
2023-06-28T09:45:28.481Z,26.40
2023-06-28T09:48:02.225Z,26.50
2023-06-28T09:50:40.762Z,26.60
2023-06-28T09:53:18.076Z,26.80
2023-06-28T09:55:47.341Z,27.00
2023-06-28T09:58:17.720Z,27.10
2023-06-28T10:00:51.086Z,27.20
2023-06-28T10:03:27.260Z,27.30
2023-06-28T10:05:58.105Z,27.40
2023-06-28T10:08:26.570Z,27.50
2023-06-28T10:10:57.057Z,27.70
2023-06-28T10:13:28.273Z,27.80
2023-06-28T10:16:18.638Z,27.90
2023-06-28T10:18:46.281Z,28.00
2023-06-28T10:21:13.741Z,28.10
2023-06-28T10:23:43.345Z,28.10
2023-06-28T10:26:14.413Z,28.20
2023-06-28T10:28:42.824Z,28.20
2023-06-28T10:31:11.096Z,28.20
2023-06-28T10:33:39.225Z,28.10
2023-06-28T10:36:07.394Z,28.10
2023-06-28T10:38:47.742Z,28.10
2023-06-28T10:41:16.746Z,28.20
2023-06-28T10:43:45.409Z,28.30
2023-06-28T10:46:31.868Z,28.50
2023-06-28T10:49:04.686Z,28.70
2023-06-28T10:51:36.302Z,28.80
2023-06-28T10:54:14.756Z,28.80
2023-06-28T10:56:48.846Z,28.80
2023-06-28T10:59:17.307Z,28.80
2023-06-28T11:01:50.713Z,28.80
2023-06-28T11:04:24.498Z,28.80
2023-06-28T11:07:22.591Z,28.80
2023-06-28T11:10:18.952Z,28.90
2023-06-28T11:12:52.286Z,29.00
2023-06-28T11:15:29.817Z,29.20
2023-06-28T11:18:22.331Z,29.30
2023-06-28T11:20:53.703Z,29.50
2023-06-28T11:23:38.029Z,29.60
2023-06-28T11:26:14.111Z,29.60
2023-06-28T11:28:55.574Z,29.60
2023-06-28T11:31:37.790Z,29.70
2023-06-28T11:34:05.843Z,29.70
2023-06-28T11:36:33.326Z,29.70
2023-06-28T11:39:00.679Z,29.50
2023-06-28T11:41:28.668Z,29.40
2023-06-28T11:44:05.678Z,29.20
2023-06-28T11:46:38.106Z,29.00
2023-06-28T11:49:05.831Z,28.80
2023-06-28T11:51:34.361Z,28.70
2023-06-28T11:54:02.907Z,28.80
2023-06-28T11:56:40.515Z,28.90
2023-06-28T11:59:16.654Z,29.20
2023-06-28T12:01:46.143Z,29.40
2023-06-28T12:04:23.996Z,29.60
2023-06-28T12:06:55.407Z,29.70
2023-06-28T12:09:28.804Z,29.90
2023-06-28T12:12:06.624Z,30.10
2023-06-28T12:14:50.470Z,30.30
2023-06-28T12:17:21.272Z,30.50
2023-06-28T12:19:48.700Z,30.70
2023-06-28T12:22:16.238Z,30.80
2023-06-28T12:24:43.681Z,30.90
2023-06-28T12:27:11.055Z,30.90
2023-06-28T12:29:39.511Z,30.90
2023-06-28T12:32:17.682Z,30.90
2023-06-28T12:34:53.431Z,30.90
2023-06-28T12:37:21.670Z,30.90
2023-06-28T12:39:49.878Z,30.90
2023-06-28T12:42:24.023Z,31.00
2023-06-28T12:45:00.100Z,31.00
2023-06-28T12:47:30.775Z,31.00
2023-06-28T12:50:00.237Z,31.10
2023-06-28T12:52:29.278Z,31.10
2023-06-28T12:54:58.346Z,31.10
2023-06-28T12:57:27.881Z,31.10
2023-06-28T12:59:56.048Z,31.10
2023-06-28T13:02:23.642Z,31.10
2023-06-28T13:04:51.266Z,31.20
2023-06-28T13:07:18.835Z,31.20
2023-06-28T13:09:46.474Z,31.10
2023-06-28T13:12:15.518Z,30.80
2023-06-28T13:14:42.826Z,30.50
2023-06-28T13:17:10.113Z,30.20
2023-06-28T13:19:37.451Z,30.00
2023-06-28T13:22:05.641Z,29.70
2023-06-28T13:24:32.934Z,29.40
2023-06-28T13:27:00.263Z,29.20
2023-06-28T13:29:28.185Z,29.10
2023-06-28T13:31:55.474Z,29.00
2023-06-28T13:34:22.763Z,28.80
2023-06-28T13:36:50.171Z,28.50
2023-06-28T13:39:19.000Z,28.30
2023-06-28T13:41:46.332Z,28.10
2023-06-28T13:44:13.666Z,28.00
2023-06-28T13:46:41.147Z,27.80
2023-06-28T13:49:08.651Z,27.80
2023-06-28T13:51:35.961Z,27.70
2023-06-28T13:54:04.120Z,27.70
2023-06-28T13:56:31.616Z,27.70
2023-06-28T13:58:58.968Z,27.70
2023-06-28T14:01:26.555Z,27.80
2023-06-28T14:03:53.927Z,27.80
2023-06-28T14:06:21.410Z,27.90
2023-06-28T14:08:48.818Z,28.00
2023-06-28T14:11:16.900Z,28.00
2023-06-28T14:13:44.282Z,27.90
2023-06-28T14:16:11.732Z,27.90
2023-06-28T14:18:39.061Z,28.00
2023-06-28T14:21:06.442Z,28.00
2023-06-28T14:23:35.139Z,28.20
2023-06-28T14:26:02.635Z,28.40
2023-06-28T14:28:31.688Z,28.60
2023-06-28T14:30:59.755Z,28.80
2023-06-28T14:33:28.546Z,29.00
2023-06-28T14:35:56.123Z,29.10
2023-06-28T14:38:23.509Z,29.20
2023-06-28T14:40:51.017Z,29.30
2023-06-28T14:43:18.927Z,29.50
2023-06-28T14:45:46.806Z,29.60
2023-06-28T14:48:14.286Z,29.80
2023-06-28T14:50:42.200Z,29.90
2023-06-28T14:53:10.140Z,30.10
2023-06-28T14:55:37.615Z,30.30
2023-06-28T14:58:04.982Z,30.40
2023-06-28T15:00:32.314Z,30.60
2023-06-28T15:02:59.839Z,30.80
2023-06-28T15:05:27.320Z,30.90
2023-06-28T15:07:54.899Z,30.90
2023-06-28T15:10:22.348Z,31.00
2023-06-28T15:12:49.666Z,31.10
2023-06-28T15:15:17.050Z,31.20
2023-06-28T15:17:44.380Z,31.30
2023-06-28T15:20:16.082Z,31.40
2023-06-28T15:22:47.511Z,31.50
2023-06-28T15:25:15.082Z,31.60
2023-06-28T15:27:43.092Z,31.60
2023-06-28T15:30:11.114Z,31.50
2023-06-28T15:32:39.495Z,31.40
2023-06-28T15:35:08.481Z,31.40
2023-06-28T15:37:35.817Z,31.30
2023-06-28T15:40:03.526Z,31.30
2023-06-28T15:42:30.976Z,31.20
2023-06-28T15:44:58.405Z,31.10
2023-06-28T15:47:25.807Z,31.10
2023-06-28T15:49:53.217Z,31.00
2023-06-28T15:52:20.546Z,30.90
2023-06-28T15:54:49.233Z,31.00
2023-06-28T15:57:16.936Z,31.10
2023-06-28T15:59:44.793Z,31.30
2023-06-28T16:02:15.038Z,31.40
2023-06-28T16:04:42.653Z,31.50
2023-06-28T16:07:10.408Z,31.60
2023-06-28T16:09:37.864Z,31.60
2023-06-28T16:12:05.833Z,31.70
2023-06-28T16:14:33.204Z,31.80
2023-06-28T16:17:00.536Z,32.00
2023-06-28T16:19:28.107Z,32.20
2023-06-28T16:21:55.516Z,32.20
2023-06-28T16:24:22.995Z,32.20
2023-06-28T16:26:50.486Z,32.20
2023-06-28T16:29:17.822Z,32.30
2023-06-28T16:31:45.682Z,32.40
2023-06-28T16:34:13.043Z,32.40
2023-06-28T16:36:42.623Z,32.60
2023-06-28T16:39:11.093Z,32.90
2023-06-28T16:41:38.443Z,33.20
2023-06-28T16:44:05.910Z,33.50
2023-06-28T16:46:33.271Z,33.70
2023-06-28T16:49:00.691Z,34.00
2023-06-28T16:51:27.980Z,34.30
2023-06-28T16:53:56.669Z,34.60
2023-06-28T16:56:28.629Z,34.90
2023-06-28T16:58:58.213Z,35.10
2023-06-28T17:01:26.794Z,35.40
2023-06-28T17:03:59.735Z,35.50
2023-06-28T17:06:29.697Z,35.70
2023-06-28T17:08:58.168Z,36.00
2023-06-28T17:11:30.868Z,36.10
2023-06-28T17:14:04.673Z,36.20
2023-06-28T17:16:33.175Z,36.20
2023-06-28T17:19:01.514Z,36.10
2023-06-28T17:21:39.240Z,35.80
2023-06-28T17:24:10.174Z,35.60
2023-06-28T17:26:38.760Z,35.30
2023-06-28T17:29:12.129Z,35.20
2023-06-28T17:31:42.330Z,35.10
2023-06-28T17:34:14.848Z,34.90
2023-06-28T17:36:51.611Z,34.90
2023-06-28T17:39:23.326Z,34.90
2023-06-28T17:41:56.911Z,35.00
2023-06-28T17:44:26.640Z,35.10
2023-06-28T17:46:55.409Z,35.20
2023-06-28T17:49:51.184Z,35.30
2023-06-28T17:52:23.660Z,35.40
2023-06-28T17:54:55.489Z,35.60
2023-06-28T17:57:25.236Z,35.70
2023-06-28T17:59:53.719Z,35.80
2023-06-28T18:02:31.322Z,35.80
2023-06-28T18:05:02.013Z,35.90
2023-06-28T18:07:35.119Z,36.00
2023-06-28T18:16:15.786Z,36.10
2023-06-28T18:18:45.231Z,36.10
2023-06-28T18:21:17.540Z,36.00
2023-06-28T18:23:48.820Z,35.90
2023-06-28T18:26:17.932Z,35.80
2023-06-28T18:28:51.957Z,35.70
2023-06-28T18:31:23.162Z,35.60
2023-06-28T18:33:55.086Z,35.40
2023-06-28T18:36:25.751Z,35.20
2023-06-28T18:38:56.923Z,35.00
2023-06-28T18:41:25.319Z,34.90
2023-06-28T18:44:05.254Z,34.70
2023-06-28T18:47:01.673Z,34.50
2023-06-28T18:50:22.107Z,34.20
2023-06-28T18:52:55.466Z,33.90
2023-06-28T18:55:31.217Z,33.60
2023-06-28T18:58:01.720Z,33.30
2023-06-28T19:00:31.298Z,33.00
2023-06-28T19:03:00.381Z,32.60
2023-06-28T19:05:30.247Z,32.30
2023-06-28T19:08:01.606Z,31.80
2023-06-28T19:10:29.863Z,31.30
2023-06-28T19:12:59.961Z,30.90
2023-06-28T19:15:28.768Z,30.40
2023-06-28T19:18:02.074Z,29.90
2023-06-28T19:20:30.718Z,29.50
2023-06-28T19:22:58.622Z,29.00
2023-06-28T19:25:29.675Z,28.60
2023-06-28T19:28:00.685Z,28.20
2023-06-28T19:30:31.122Z,27.90
2023-06-28T19:33:02.077Z,27.50
2023-06-28T19:35:32.377Z,27.20
2023-06-28T19:38:02.382Z,26.90
2023-06-28T19:40:33.948Z,26.70
2023-06-28T19:43:05.242Z,26.40
2023-06-28T19:45:33.672Z,26.20
2023-06-28T19:48:04.453Z,25.90
2023-06-28T19:50:32.903Z,25.70
2023-06-28T19:53:04.427Z,25.50
2023-06-28T19:55:34.489Z,25.20
2023-06-28T19:58:03.043Z,25.10
2023-06-28T20:00:31.737Z,24.90
2023-06-28T20:02:59.622Z,24.60
2023-06-28T20:05:31.624Z,24.50
2023-06-28T20:08:03.590Z,24.30
2023-06-28T20:10:35.939Z,24.20
2023-06-28T20:13:06.352Z,23.90
2023-06-28T20:15:40.670Z,23.70
2023-06-28T20:18:13.178Z,23.50
2023-06-28T20:20:47.004Z,23.30
2023-06-28T20:23:17.355Z,23.20
2023-06-28T20:25:48.770Z,23.00
2023-06-28T20:28:22.020Z,22.90
2023-06-28T20:30:52.609Z,22.80
2023-06-28T20:33:22.676Z,22.60
2023-06-28T20:35:52.873Z,22.50
2023-06-28T20:38:23.768Z,22.40
2023-06-28T20:40:53.134Z,22.30
2023-06-28T20:43:24.257Z,22.20
2023-06-28T20:45:53.206Z,22.10
2023-06-28T20:48:24.115Z,22.00
2023-06-28T20:50:52.594Z,21.90
2023-06-28T20:53:21.395Z,21.70
2023-06-28T20:55:51.250Z,21.60
2023-06-28T20:58:20.545Z,21.50
2023-06-28T21:00:52.179Z,21.40
2023-06-28T21:03:20.636Z,21.30
2023-06-28T21:05:48.511Z,21.20
2023-06-28T21:08:17.337Z,21.10
2023-06-28T21:10:46.586Z,21.00
2023-06-28T21:13:16.039Z,20.90
2023-06-28T21:15:45.949Z,20.80
2023-06-28T21:18:14.012Z,20.80
2023-06-28T21:20:42.733Z,20.70
2023-06-28T21:23:13.449Z,20.60
2023-06-28T21:25:42.703Z,20.50
2023-06-28T21:28:11.409Z,20.40
2023-06-28T21:30:39.028Z,20.40
2023-06-28T21:33:06.630Z,20.30
2023-06-28T21:35:34.976Z,20.20
2023-06-28T21:38:04.506Z,20.10
2023-06-28T21:40:31.981Z,20.00
2023-06-28T21:43:00.603Z,19.90
2023-06-28T21:45:28.178Z,19.90
2023-06-28T21:47:55.625Z,19.80
2023-06-28T21:50:24.374Z,19.70
2023-06-28T21:52:52.043Z,19.60
2023-06-28T21:55:20.210Z,19.50
2023-06-28T21:57:47.593Z,19.40
2023-06-28T22:00:22.937Z,19.40
2023-06-28T22:02:50.352Z,19.30
2023-06-28T22:05:17.943Z,19.30
2023-06-28T22:07:46.450Z,19.20
2023-06-28T22:10:14.039Z,19.10
2023-06-28T22:12:41.638Z,19.10
2023-06-28T22:15:09.639Z,19.00
2023-06-28T22:17:38.303Z,19.00
2023-06-28T22:20:08.356Z,18.90
2023-06-28T22:22:35.783Z,18.90
2023-06-28T22:25:03.923Z,18.80
2023-06-28T22:27:31.461Z,18.70
2023-06-28T22:30:00.576Z,18.70
2023-06-28T22:32:27.969Z,18.60
2023-06-28T22:34:55.644Z,18.50
2023-06-28T22:37:23.064Z,18.50
2023-06-28T22:39:50.452Z,18.40
2023-06-28T22:42:18.092Z,18.40
2023-06-28T22:44:45.495Z,18.30
2023-06-28T22:47:12.934Z,18.30
2023-06-28T22:49:41.720Z,18.20
2023-06-28T22:52:10.153Z,18.20
2023-06-28T22:54:37.646Z,18.10
2023-06-28T22:57:05.565Z,18.10
2023-06-28T22:59:33.328Z,18.00
2023-06-28T23:02:00.724Z,18.00
2023-06-28T23:04:28.158Z,17.90
2023-06-28T23:06:55.613Z,17.90
2023-06-28T23:09:28.929Z,17.80
2023-06-28T23:11:57.950Z,17.80
2023-06-28T23:14:28.752Z,17.70
2023-06-28T23:16:56.656Z,17.70
2023-06-28T23:19:24.048Z,17.70
2023-06-28T23:21:51.344Z,17.60
2023-06-28T23:24:20.550Z,17.60
2023-06-28T23:26:50.072Z,17.50
2023-06-28T23:29:18.498Z,17.40
2023-06-28T23:31:46.176Z,17.40
2023-06-28T23:34:18.971Z,17.30
2023-06-28T23:36:51.380Z,17.30
2023-06-28T23:39:23.255Z,17.20
2023-06-28T23:41:51.350Z,17.20
2023-06-28T23:44:18.744Z,17.10
2023-06-28T23:46:46.229Z,17.10
2023-06-28T23:49:14.587Z,17.00
2023-06-28T23:51:43.491Z,17.00
2023-06-28T23:54:11.272Z,16.90
2023-06-28T23:56:40.052Z,16.90
2023-06-28T23:59:08.068Z,16.80
